Majulah Singapura — 9V2804 — position and weather

sailwx.info

Track history (hours):
 
Tides and Currents Weather Stations Pressure Air Temp Water Temp Dewpoint Dewpoint Depression Visibility Wind Speed Wind Dir Waves Ship Positions

Majulah Singapura

Last reported at 2018-Jun-18 22:45 UTC. Time now 2018-Jul-18 01:00 UTC.
Position S 24°37' W 046°23'.
Warning: this ship's position is 29 days out of date.

Length 190 m; draft 7 m.

Type: Cargo ship. MMSI: 564805000.

Date/timePositionNaut miles runAvg speedWind from/ knotsBaromVisibWave heightAir tempDewpointWater temp
2018-Jun-18 22:45S 24°37' W 046°23'314.0
2018-Jun-18 22:30S 24°33' W 046°23'713.9
2018-Jun-18 22:00S 24°26' W 046°23'713.7
2018-Jun-18 21:30S 24°20' W 046°23'713.3
2018-Jun-18 21:00S 24°13' W 046°23'611.6
2018-Jun-18 20:30S 24°07' W 046°22'510.4
2018-Jun-18 20:00S 24°02' W 046°21'4 7.8
2018-Jun-18 19:30S 23°60' W 046°18'  
2018-Jun-12 03:37S 23°58' W 046°18'1 6.3
2018-Jun-12 03:27S 23°59' W 046°17'3 7.2
2018-Jun-12 03:00S 24°01' W 046°21'2 3.5
2018-Jun-12 02:30S 24°03' W 046°21'4 7.6
2018-Jun-12 02:00S 24°06' W 046°22'3 6.8
2018-Jun-12 01:30S 24°07' W 046°19'0 0.0
2018-Jun-12 00:55S 24°07' W 046°19'0 0.0
2018-Jun-12 00:25S 24°07' W 046°19'0 0.0
2018-Jun-11 23:55S 24°07' W 046°19'0 0.0
2018-Jun-11 23:20S 24°07' W 046°19'0 0.1
2018-Jun-11 22:52S 24°07' W 046°19'0 0.0
2018-Jun-11 22:26S 24°07' W 046°19'0 0.0
2018-Jun-11 21:58S 24°07' W 046°19'0 0.0
2018-Jun-11 21:28S 24°07' W 046°19'0 0.0
2018-Jun-11 20:52S 24°07' W 046°19'0 0.0
2018-Jun-11 20:16S 24°07' W 046°19'0 0.0
2018-Jun-11 19:55S 24°07' W 046°19'0 0.0
2018-Jun-11 19:28S 24°07' W 046°19'0 0.0
2018-Jun-11 18:58S 24°07' W 046°19'0 0.1
2018-Jun-11 18:22S 24°07' W 046°19'0 0.0
2018-Jun-11 17:55S 24°07' W 046°19'0 0.1
2018-Jun-11 17:28S 24°07' W 046°19'0 0.0
2018-Jun-11 16:55S 24°07' W 046°19'0 0.0
2018-Jun-11 16:25S 24°07' W 046°19'0 0.0
2018-Jun-11 15:58S 24°07' W 046°19'0 0.0
2018-Jun-11 15:28S 24°07' W 046°19'0 0.0
2018-Jun-11 14:55S 24°07' W 046°19'0 0.0
2018-Jun-11 14:25S 24°07' W 046°19'0 0.0
2018-Jun-11 13:58S 24°07' W 046°19'0 0.0
2018-Jun-11 13:28S 24°07' W 046°19'0 0.0
2018-Jun-11 12:52S 24°07' W 046°19'0 0.0
2018-Jun-11 12:25S 24°07' W 046°19'0 0.0
2018-Jun-11 11:58S 24°07' W 046°19'0 0.0
2018-Jun-11 11:25S 24°07' W 046°19'0 0.0
2018-Jun-11 10:49S 24°07' W 046°19'0 0.0
2018-Jun-11 10:19S 24°07' W 046°19'0 0.0
2018-Jun-11 09:58S 24°07' W 046°19'0 0.0
2018-Jun-11 08:55S 24°07' W 046°19'0 0.0
2018-Jun-11 08:28S 24°07' W 046°19'0 0.0
2018-Jun-11 07:55S 24°07' W 046°19'0 0.0
2018-Jun-11 07:28S 24°07' W 046°19'0 0.0
2018-Jun-11 06:55S 24°07' W 046°19'0 0.1
2018-Jun-11 06:28S 24°07' W 046°19'0 0.0
2018-Jun-11 05:58S 24°07' W 046°19'0 0.0
2018-Jun-11 05:28S 24°07' W 046°19'0 0.0
2018-Jun-11 04:58S 24°07' W 046°19'0 0.0
2018-Jun-11 04:19S 24°07' W 046°19'0 0.0
2018-Jun-11 03:58S 24°07' W 046°19'0 0.0
2018-Jun-11 03:28S 24°07' W 046°19'0 0.0
2018-Jun-11 02:58S 24°07' W 046°19'0 0.0
2018-Jun-11 02:28S 24°07' W 046°19'0 0.0
2018-Jun-11 01:55S 24°07' W 046°19'0 0.0
2018-Jun-11 01:28S 24°07' W 046°19'0 0.0
2018-Jun-11 00:55S 24°07' W 046°19'0 0.0
2018-Jun-11 00:28S 24°07' W 046°19'0 0.0
2018-Jun-10 23:55S 24°07' W 046°19'0 0.0
2018-Jun-10 23:25S 24°07' W 046°19'0 0.0
2018-Jun-10 22:58S 24°07' W 046°19'0 0.0
2018-Jun-10 22:28S 24°07' W 046°19'0 0.0
2018-Jun-10 21:58S 24°07' W 046°19'0 0.0
2018-Jun-10 21:22S 24°07' W 046°19'0 0.0
2018-Jun-10 20:55S 24°07' W 046°19'0 0.0
2018-Jun-10 20:25S 24°07' W 046°19'0 0.1
2018-Jun-10 19:58S 24°07' W 046°19'0 0.1
2018-Jun-10 19:28S 24°07' W 046°19'0 0.1
2018-Jun-10 18:52S 24°07' W 046°19'0 0.1
2018-Jun-10 18:22S 24°07' W 046°19'0 0.0
2018-Jun-10 17:55S 24°07' W 046°19'0 0.0
2018-Jun-10 17:28S 24°07' W 046°19'0 0.1
2018-Jun-10 16:49S 24°07' W 046°19'0 0.1
2018-Jun-10 16:25S 24°07' W 046°19'0 0.0
2018-Jun-10 15:49S 24°07' W 046°19'0 0.0
2018-Jun-10 15:25S 24°07' W 046°19'0 0.0
2018-Jun-10 14:55S 24°07' W 046°19'0 0.0
2018-Jun-10 14:25S 24°07' W 046°19'0 0.0
2018-Jun-10 13:25S 24°07' W 046°19'0 0.0
2018-Jun-10 12:55S 24°07' W 046°19'0 0.0
2018-Jun-10 12:25S 24°07' W 046°19'0 0.0
2018-Jun-10 11:55S 24°07' W 046°19'0 0.1
2018-Jun-10 11:25S 24°07' W 046°19'0 0.0
2018-Jun-10 10:58S 24°07' W 046°19'0 0.0
2018-Jun-10 10:25S 24°07' W 046°19'0 0.1
2018-Jun-10 09:58S 24°07' W 046°19'0 0.0
2018-Jun-10 09:28S 24°07' W 046°19'0 0.0
2018-Jun-10 08:55S 24°07' W 046°19'0 0.0
2018-Jun-10 08:28S 24°07' W 046°19'0 0.0
2018-Jun-10 07:55S 24°07' W 046°19'0 0.0
2018-Jun-10 07:25S 24°07' W 046°19'0 0.0
2018-Jun-10 06:58S 24°07' W 046°19'0 0.0
2018-Jun-10 06:28S 24°07' W 046°19'0 0.0
2018-Jun-10 05:58S 24°07' W 046°19'0 0.0
2018-Jun-10 05:25S 24°07' W 046°19'0 0.0
2018-Jun-10 04:55S 24°07' W 046°19'0 0.1
2018-Jun-10 04:28S 24°07' W 046°19'0 0.0
2018-Jun-10 03:58S 24°07' W 046°19'0 0.0
2018-Jun-10 03:25S 24°07' W 046°19'0 0.0
2018-Jun-10 02:55S 24°07' W 046°19'0 0.0
2018-Jun-10 02:28S 24°07' W 046°19'0 0.0
2018-Jun-10 01:58S 24°07' W 046°19'0 0.0
2018-Jun-10 01:25S 24°07' W 046°19'0 0.0
2018-Jun-10 00:55S 24°07' W 046°19'0 0.0
2018-Jun-10 00:19S 24°07' W 046°19'0 0.0
2018-Jun-09 23:58S 24°07' W 046°19'0 0.0
2018-Jun-09 23:19S 24°07' W 046°19'0 0.0
2018-Jun-09 22:58S 24°07' W 046°19'0 0.0
2018-Jun-09 22:28S 24°07' W 046°19'0 0.0
2018-Jun-09 21:58S 24°07' W 046°19'0 0.0
2018-Jun-09 21:25S 24°07' W 046°19'0 0.0
2018-Jun-09 20:58S 24°07' W 046°19'0 0.0
2018-Jun-09 20:28S 24°07' W 046°19'0 0.0
2018-Jun-09 19:58S 24°07' W 046°19'0 0.1
2018-Jun-09 19:28S 24°07' W 046°19'0 0.0
2018-Jun-09 18:58S 24°07' W 046°19'0 0.0
2018-Jun-09 18:25S 24°07' W 046°19'0 0.0
2018-Jun-09 17:58S 24°07' W 046°19'0 0.0
2018-Jun-09 17:28S 24°07' W 046°19'0 0.0
2018-Jun-09 16:55S 24°07' W 046°19'0 0.0
2018-Jun-09 16:28S 24°07' W 046°19'0 0.0
2018-Jun-09 15:58S 24°07' W 046°19'0 0.0
2018-Jun-09 14:58S 24°07' W 046°19'0 0.0
2018-Jun-09 14:28S 24°07' W 046°19'0 0.0
2018-Jun-09 13:55S 24°07' W 046°19'0 0.0
2018-Jun-09 13:28S 24°07' W 046°19'0 0.0
2018-Jun-09 12:55S 24°07' W 046°19'0 0.0
2018-Jun-09 12:28S 24°07' W 046°19'0 0.0
2018-Jun-09 11:58S 24°07' W 046°19'0 0.0
2018-Jun-09 11:25S 24°07' W 046°19'0 0.1
2018-Jun-09 10:58S 24°07' W 046°19'0 0.0
2018-Jun-09 10:28S 24°07' W 046°19'0 0.0
2018-Jun-09 09:58S 24°07' W 046°19'0 0.0
2018-Jun-09 09:28S 24°07' W 046°19'0 0.0
2018-Jun-09 08:58S 24°07' W 046°19'0 0.0
2018-Jun-09 08:28S 24°07' W 046°19'0 0.0
2018-Jun-09 07:55S 24°07' W 046°19'0 0.0
2018-Jun-09 07:28S 24°07' W 046°19'0 0.0
2018-Jun-09 06:55S 24°07' W 046°19'0 0.0
2018-Jun-09 06:28S 24°07' W 046°19'0 0.0
2018-Jun-09 05:58S 24°07' W 046°19'0 0.0
2018-Jun-09 05:28S 24°07' W 046°19'0 0.0
2018-Jun-09 04:55S 24°07' W 046°19'0 0.0
2018-Jun-09 04:25S 24°07' W 046°19'0 0.0
2018-Jun-09 03:58S 24°07' W 046°19'0 0.1
2018-Jun-09 03:25S 24°07' W 046°19'0 0.0
2018-Jun-09 02:52S 24°07' W 046°19'0 0.0
2018-Jun-09 02:22S 24°07' W 046°19'0 0.0
2018-Jun-09 01:55S 24°07' W 046°19'0 0.0
2018-Jun-09 01:28S 24°07' W 046°19'0 0.0
2018-Jun-09 00:55S 24°07' W 046°19'0 0.0
2018-Jun-09 00:28S 24°07' W 046°19'0 0.0
2018-Jun-08 23:52S 24°07' W 046°19'0 0.0
2018-Jun-08 23:28S 24°07' W 046°19'0 0.0
2018-Jun-08 22:49S 24°07' W 046°19'  
Track history (hours):
 
Tides and Currents Weather Stations Pressure Air Temp Water Temp Dewpoint Dewpoint Depression Visibility Wind Speed Wind Dir Waves Ship Positions

Majulah Singapura

Last reported at 2018-Jun-18 22:45 UTC. Time now 2018-Jul-18 01:00 UTC.
Position S 24°37' W 046°23'.
Warning: this ship's position is 29 days out of date.

Length 190 m; draft 7 m.

Type: Cargo ship. MMSI: 564805000.

Date/timePositionNaut miles runAvg speedWind from/ knotsBaromVisibWave heightAir tempDewpointWater temp
2018-Jun-18 22:45S 24°37' W 046°23'314.0
2018-Jun-18 22:30S 24°33' W 046°23'713.9
2018-Jun-18 22:00S 24°26' W 046°23'713.7
2018-Jun-18 21:30S 24°20' W 046°23'713.3
2018-Jun-18 21:00S 24°13' W 046°23'611.6
2018-Jun-18 20:30S 24°07' W 046°22'510.4
2018-Jun-18 20:00S 24°02' W 046°21'4 7.8
2018-Jun-18 19:30S 23°60' W 046°18'  
2018-Jun-12 03:37S 23°58' W 046°18'1 6.3
2018-Jun-12 03:27S 23°59' W 046°17'3 7.2
2018-Jun-12 03:00S 24°01' W 046°21'2 3.5
2018-Jun-12 02:30S 24°03' W 046°21'4 7.6
2018-Jun-12 02:00S 24°06' W 046°22'3 6.8
2018-Jun-12 01:30S 24°07' W 046°19'0 0.0
2018-Jun-12 00:55S 24°07' W 046°19'0 0.0
2018-Jun-12 00:25S 24°07' W 046°19'0 0.0
2018-Jun-11 23:55S 24°07' W 046°19'0 0.0
2018-Jun-11 23:20S 24°07' W 046°19'0 0.1
2018-Jun-11 22:52S 24°07' W 046°19'0 0.0
2018-Jun-11 22:26S 24°07' W 046°19'0 0.0
2018-Jun-11 21:58S 24°07' W 046°19'0 0.0
2018-Jun-11 21:28S 24°07' W 046°19'0 0.0
2018-Jun-11 20:52S 24°07' W 046°19'0 0.0
2018-Jun-11 20:16S 24°07' W 046°19'0 0.0
2018-Jun-11 19:55S 24°07' W 046°19'0 0.0
2018-Jun-11 19:28S 24°07' W 046°19'0 0.0
2018-Jun-11 18:58S 24°07' W 046°19'0 0.1
2018-Jun-11 18:22S 24°07' W 046°19'0 0.0
2018-Jun-11 17:55S 24°07' W 046°19'0 0.1
2018-Jun-11 17:28S 24°07' W 046°19'0 0.0
2018-Jun-11 16:55S 24°07' W 046°19'0 0.0
2018-Jun-11 16:25S 24°07' W 046°19'0 0.0
2018-Jun-11 15:58S 24°07' W 046°19'0 0.0
2018-Jun-11 15:28S 24°07' W 046°19'0 0.0
2018-Jun-11 14:55S 24°07' W 046°19'0 0.0
2018-Jun-11 14:25S 24°07' W 046°19'0 0.0
2018-Jun-11 13:58S 24°07' W 046°19'0 0.0
2018-Jun-11 13:28S 24°07' W 046°19'0 0.0
2018-Jun-11 12:52S 24°07' W 046°19'0 0.0
2018-Jun-11 12:25S 24°07' W 046°19'0 0.0
2018-Jun-11 11:58S 24°07' W 046°19'0 0.0
2018-Jun-11 11:25S 24°07' W 046°19'0 0.0
2018-Jun-11 10:49S 24°07' W 046°19'0 0.0
2018-Jun-11 10:19S 24°07' W 046°19'0 0.0
2018-Jun-11 09:58S 24°07' W 046°19'0 0.0
2018-Jun-11 08:55S 24°07' W 046°19'0 0.0
2018-Jun-11 08:28S 24°07' W 046°19'0 0.0
2018-Jun-11 07:55S 24°07' W 046°19'0 0.0
2018-Jun-11 07:28S 24°07' W 046°19'0 0.0
2018-Jun-11 06:55S 24°07' W 046°19'0 0.1
2018-Jun-11 06:28S 24°07' W 046°19'0 0.0
2018-Jun-11 05:58S 24°07' W 046°19'0 0.0
2018-Jun-11 05:28S 24°07' W 046°19'0 0.0
2018-Jun-11 04:58S 24°07' W 046°19'0 0.0
2018-Jun-11 04:19S 24°07' W 046°19'0 0.0
2018-Jun-11 03:58S 24°07' W 046°19'0 0.0
2018-Jun-11 03:28S 24°07' W 046°19'0 0.0
2018-Jun-11 02:58S 24°07' W 046°19'0 0.0
2018-Jun-11 02:28S 24°07' W 046°19'0 0.0
2018-Jun-11 01:55S 24°07' W 046°19'0 0.0
2018-Jun-11 01:28S 24°07' W 046°19'0 0.0
2018-Jun-11 00:55S 24°07' W 046°19'0 0.0
2018-Jun-11 00:28S 24°07' W 046°19'0 0.0
2018-Jun-10 23:55S 24°07' W 046°19'0 0.0
2018-Jun-10 23:25S 24°07' W 046°19'0 0.0
2018-Jun-10 22:58S 24°07' W 046°19'0 0.0
2018-Jun-10 22:28S 24°07' W 046°19'0 0.0
2018-Jun-10 21:58S 24°07' W 046°19'0 0.0
2018-Jun-10 21:22S 24°07' W 046°19'0 0.0
2018-Jun-10 20:55S 24°07' W 046°19'0 0.0
2018-Jun-10 20:25S 24°07' W 046°19'0 0.1
2018-Jun-10 19:58S 24°07' W 046°19'0 0.1
2018-Jun-10 19:28S 24°07' W 046°19'0 0.1
2018-Jun-10 18:52S 24°07' W 046°19'0 0.1
2018-Jun-10 18:22S 24°07' W 046°19'0 0.0
2018-Jun-10 17:55S 24°07' W 046°19'0 0.0
2018-Jun-10 17:28S 24°07' W 046°19'0 0.1
2018-Jun-10 16:49S 24°07' W 046°19'0 0.1
2018-Jun-10 16:25S 24°07' W 046°19'0 0.0
2018-Jun-10 15:49S 24°07' W 046°19'0 0.0
2018-Jun-10 15:25S 24°07' W 046°19'0 0.0
2018-Jun-10 14:55S 24°07' W 046°19'0 0.0
2018-Jun-10 14:25S 24°07' W 046°19'0 0.0
2018-Jun-10 13:25S 24°07' W 046°19'0 0.0
2018-Jun-10 12:55S 24°07' W 046°19'0 0.0
2018-Jun-10 12:25S 24°07' W 046°19'0 0.0
2018-Jun-10 11:55S 24°07' W 046°19'0 0.1
2018-Jun-10 11:25S 24°07' W 046°19'0 0.0
2018-Jun-10 10:58S 24°07' W 046°19'0 0.0
2018-Jun-10 10:25S 24°07' W 046°19'0 0.1
2018-Jun-10 09:58S 24°07' W 046°19'0 0.0
2018-Jun-10 09:28S 24°07' W 046°19'0 0.0
2018-Jun-10 08:55S 24°07' W 046°19'0 0.0
2018-Jun-10 08:28S 24°07' W 046°19'0 0.0
2018-Jun-10 07:55S 24°07' W 046°19'0 0.0
2018-Jun-10 07:25S 24°07' W 046°19'0 0.0
2018-Jun-10 06:58S 24°07' W 046°19'0 0.0
2018-Jun-10 06:28S 24°07' W 046°19'0 0.0
2018-Jun-10 05:58S 24°07' W 046°19'0 0.0
2018-Jun-10 05:25S 24°07' W 046°19'0 0.0
2018-Jun-10 04:55S 24°07' W 046°19'0 0.1
2018-Jun-10 04:28S 24°07' W 046°19'0 0.0
2018-Jun-10 03:58S 24°07' W 046°19'0 0.0
2018-Jun-10 03:25S 24°07' W 046°19'0 0.0
2018-Jun-10 02:55S 24°07' W 046°19'0 0.0
2018-Jun-10 02:28S 24°07' W 046°19'0 0.0
2018-Jun-10 01:58S 24°07' W 046°19'0 0.0
2018-Jun-10 01:25S 24°07' W 046°19'0 0.0
2018-Jun-10 00:55S 24°07' W 046°19'0 0.0
2018-Jun-10 00:19S 24°07' W 046°19'0 0.0
2018-Jun-09 23:58S 24°07' W 046°19'0 0.0
2018-Jun-09 23:19S 24°07' W 046°19'0 0.0
2018-Jun-09 22:58S 24°07' W 046°19'0 0.0
2018-Jun-09 22:28S 24°07' W 046°19'0 0.0
2018-Jun-09 21:58S 24°07' W 046°19'0 0.0
2018-Jun-09 21:25S 24°07' W 046°19'0 0.0
2018-Jun-09 20:58S 24°07' W 046°19'0 0.0
2018-Jun-09 20:28S 24°07' W 046°19'0 0.0
2018-Jun-09 19:58S 24°07' W 046°19'0 0.1
2018-Jun-09 19:28S 24°07' W 046°19'0 0.0
2018-Jun-09 18:58S 24°07' W 046°19'0 0.0
2018-Jun-09 18:25S 24°07' W 046°19'0 0.0
2018-Jun-09 17:58S 24°07' W 046°19'0 0.0
2018-Jun-09 17:28S 24°07' W 046°19'0 0.0
2018-Jun-09 16:55S 24°07' W 046°19'0 0.0
2018-Jun-09 16:28S 24°07' W 046°19'0 0.0
2018-Jun-09 15:58S 24°07' W 046°19'0 0.0
2018-Jun-09 14:58S 24°07' W 046°19'0 0.0
2018-Jun-09 14:28S 24°07' W 046°19'0 0.0
2018-Jun-09 13:55S 24°07' W 046°19'0 0.0
2018-Jun-09 13:28S 24°07' W 046°19'0 0.0
2018-Jun-09 12:55S 24°07' W 046°19'0 0.0
2018-Jun-09 12:28S 24°07' W 046°19'0 0.0
2018-Jun-09 11:58S 24°07' W 046°19'0 0.0
2018-Jun-09 11:25S 24°07' W 046°19'0 0.1
2018-Jun-09 10:58S 24°07' W 046°19'0 0.0
2018-Jun-09 10:28S 24°07' W 046°19'0 0.0
2018-Jun-09 09:58S 24°07' W 046°19'0 0.0
2018-Jun-09 09:28S 24°07' W 046°19'0 0.0
2018-Jun-09 08:58S 24°07' W 046°19'0 0.0
2018-Jun-09 08:28S 24°07' W 046°19'0 0.0
2018-Jun-09 07:55S 24°07' W 046°19'0 0.0
2018-Jun-09 07:28S 24°07' W 046°19'0 0.0
2018-Jun-09 06:55S 24°07' W 046°19'0 0.0
2018-Jun-09 06:28S 24°07' W 046°19'0 0.0
2018-Jun-09 05:58S 24°07' W 046°19'0 0.0
2018-Jun-09 05:28S 24°07' W 046°19'0 0.0
2018-Jun-09 04:55S 24°07' W 046°19'0 0.0
2018-Jun-09 04:25S 24°07' W 046°19'0 0.0
2018-Jun-09 03:58S 24°07' W 046°19'0 0.1
2018-Jun-09 03:25S 24°07' W 046°19'0 0.0
2018-Jun-09 02:52S 24°07' W 046°19'0 0.0
2018-Jun-09 02:22S 24°07' W 046°19'0 0.0
2018-Jun-09 01:55S 24°07' W 046°19'0 0.0
2018-Jun-09 01:28S 24°07' W 046°19'0 0.0
2018-Jun-09 00:55S 24°07' W 046°19'0 0.0
2018-Jun-09 00:28S 24°07' W 046°19'0 0.0
2018-Jun-08 23:52S 24°07' W 046°19'0 0.0
2018-Jun-08 23:28S 24°07' W 046°19'0 0.0
2018-Jun-08 22:49S 24°07' W 046°19'  

Dump ship's entire track history